sensor_id;sensor_type;location;lat;lon;timestamp;P1;durP1;ratioP1;P2;durP2;ratioP2
52946;SDS011;68773;40.400;17.260;2023-03-23T00:00:43;22.40;;;12.48;;
52946;SDS011;68773;40.400;17.260;2023-03-23T00:03:09;16.55;;;11.55;;
52946;SDS011;68773;40.400;17.260;2023-03-23T00:05:34;20.55;;;12.85;;
52946;SDS011;68773;40.400;17.260;2023-03-23T00:08:02;17.60;;;12.48;;
52946;SDS011;68773;40.400;17.260;2023-03-23T00:10:28;18.10;;;11.90;;
52946;SDS011;68773;40.400;17.260;2023-03-23T00:12:57;20.15;;;12.85;;
52946;SDS011;68773;40.400;17.260;2023-03-23T00:15:27;19.55;;;12.30;;
52946;SDS011;68773;40.400;17.260;2023-03-23T00:17:55;20.42;;;12.15;;
52946;SDS011;68773;40.400;17.260;2023-03-23T00:20:27;19.05;;;12.70;;
52946;SDS011;68773;40.400;17.260;2023-03-23T00:22:54;17.98;;;12.05;;
52946;SDS011;68773;40.400;17.260;2023-03-23T00:25:24;18.55;;;12.68;;
52946;SDS011;68773;40.400;17.260;2023-03-23T00:27:50;20.67;;;12.48;;
52946;SDS011;68773;40.400;17.260;2023-03-23T00:30:15;20.38;;;12.10;;
52946;SDS011;68773;40.400;17.260;2023-03-23T00:32:41;20.95;;;12.63;;
52946;SDS011;68773;40.400;17.260;2023-03-23T00:35:06;19.33;;;12.18;;
52946;SDS011;68773;40.400;17.260;2023-03-23T00:37:32;22.13;;;12.68;;
52946;SDS011;68773;40.400;17.260;2023-03-23T00:39:57;17.58;;;12.02;;
52946;SDS011;68773;40.400;17.260;2023-03-23T00:42:25;19.13;;;12.65;;
52946;SDS011;68773;40.400;17.260;2023-03-23T00:44:51;21.60;;;12.85;;
52946;SDS011;68773;40.400;17.260;2023-03-23T00:47:25;18.88;;;12.85;;
52946;SDS011;68773;40.400;17.260;2023-03-23T00:49:50;18.83;;;12.40;;
52946;SDS011;68773;40.400;17.260;2023-03-23T00:52:17;18.70;;;12.52;;
52946;SDS011;68773;40.400;17.260;2023-03-23T00:54:42;20.48;;;12.65;;
52946;SDS011;68773;40.400;17.260;2023-03-23T00:57:07;20.45;;;12.60;;
52946;SDS011;68773;40.400;17.260;2023-03-23T00:59:33;21.58;;;11.88;;
52946;SDS011;68773;40.400;17.260;2023-03-23T01:01:58;20.20;;;12.70;;
52946;SDS011;68773;40.400;17.260;2023-03-23T01:04:23;19.08;;;12.02;;
52946;SDS011;68773;40.400;17.260;2023-03-23T01:06:49;19.05;;;12.30;;
52946;SDS011;68773;40.400;17.260;2023-03-23T01:09:15;17.10;;;11.65;;
52946;SDS011;68773;40.400;17.260;2023-03-23T01:11:42;15.32;;;10.73;;
52946;SDS011;68773;40.400;17.260;2023-03-23T01:14:07;17.83;;;11.88;;
52946;SDS011;68773;40.400;17.260;2023-03-23T01:16:33;20.83;;;12.30;;
52946;SDS011;68773;40.400;17.260;2023-03-23T01:18:58;20.42;;;12.77;;
52946;SDS011;68773;40.400;17.260;2023-03-23T01:21:23;19.80;;;11.70;;
52946;SDS011;68773;40.400;17.260;2023-03-23T01:23:50;17.20;;;11.00;;
52946;SDS011;68773;40.400;17.260;2023-03-23T01:26:16;16.45;;;11.55;;
52946;SDS011;68773;40.400;17.260;2023-03-23T01:28:42;12.90;;;8.95;;
52946;SDS011;68773;40.400;17.260;2023-03-23T01:31:15;15.07;;;9.57;;
52946;SDS011;68773;40.400;17.260;2023-03-23T01:33:41;12.65;;;8.85;;
52946;SDS011;68773;40.400;17.260;2023-03-23T01:36:10;13.00;;;8.35;;
52946;SDS011;68773;40.400;17.260;2023-03-23T01:38:36;11.18;;;7.80;;
52946;SDS011;68773;40.400;17.260;2023-03-23T01:41:02;12.18;;;8.35;;
52946;SDS011;68773;40.400;17.260;2023-03-23T01:43:27;10.23;;;7.22;;
52946;SDS011;68773;40.400;17.260;2023-03-23T01:45:53;9.88;;;7.32;;
52946;SDS011;68773;40.400;17.260;2023-03-23T01:48:20;13.43;;;8.13;;
52946;SDS011;68773;40.400;17.260;2023-03-23T01:50:51;12.15;;;8.32;;
52946;SDS011;68773;40.400;17.260;2023-03-23T01:53:19;14.40;;;8.23;;
52946;SDS011;68773;40.400;17.260;2023-03-23T01:55:46;12.88;;;8.60;;
52946;SDS011;68773;40.400;17.260;2023-03-23T01:58:16;11.30;;;8.10;;
52946;SDS011;68773;40.400;17.260;2023-03-23T02:00:42;14.40;;;8.27;;
52946;SDS011;68773;40.400;17.260;2023-03-23T02:03:08;11.80;;;8.18;;
52946;SDS011;68773;40.400;17.260;2023-03-23T02:05:36;14.60;;;8.43;;
52946;SDS011;68773;40.400;17.260;2023-03-23T02:08:02;12.85;;;8.52;;
52946;SDS011;68773;40.400;17.260;2023-03-23T02:10:30;13.80;;;8.55;;
52946;SDS011;68773;40.400;17.260;2023-03-23T02:12:56;13.93;;;8.55;;
52946;SDS011;68773;40.400;17.260;2023-03-23T02:15:22;12.95;;;8.80;;
52946;SDS011;68773;40.400;17.260;2023-03-23T02:18:01;17.67;;;9.23;;
52946;SDS011;68773;40.400;17.260;2023-03-23T02:41:16;13.25;;;8.65;;
52946;SDS011;68773;40.400;17.260;2023-03-23T02:43:43;16.58;;;9.35;;
52946;SDS011;68773;40.400;17.260;2023-03-23T02:46:09;15.00;;;9.13;;
52946;SDS011;68773;40.400;17.260;2023-03-23T02:48:35;19.10;;;10.20;;
52946;SDS011;68773;40.400;17.260;2023-03-23T02:51:01;16.33;;;9.18;;
52946;SDS011;68773;40.400;17.260;2023-03-23T02:53:27;15.90;;;8.25;;
52946;SDS011;68773;40.400;17.260;2023-03-23T02:55:54;17.60;;;8.20;;
52946;SDS011;68773;40.400;17.260;2023-03-23T02:58:21;13.48;;;8.38;;
52946;SDS011;68773;40.400;17.260;2023-03-23T03:00:48;11.40;;;6.18;;
52946;SDS011;68773;40.400;17.260;2023-03-23T03:03:15;10.27;;;6.45;;
52946;SDS011;68773;40.400;17.260;2023-03-23T03:13:32;15.15;;;5.63;;
52946;SDS011;68773;40.400;17.260;2023-03-23T03:16:14;13.25;;;7.70;;
52946;SDS011;68773;40.400;17.260;2023-03-23T03:18:48;9.40;;;5.90;;
52946;SDS011;68773;40.400;17.260;2023-03-23T03:21:14;13.32;;;6.95;;
52946;SDS011;68773;40.400;17.260;2023-03-23T03:23:41;11.68;;;6.43;;
52946;SDS011;68773;40.400;17.260;2023-03-23T03:26:07;13.73;;;6.43;;
52946;SDS011;68773;40.400;17.260;2023-03-23T03:28:34;13.93;;;7.15;;
52946;SDS011;68773;40.400;17.260;2023-03-23T03:31:01;10.50;;;7.30;;
52946;SDS011;68773;40.400;17.260;2023-03-23T03:33:28;14.77;;;8.00;;
52946;SDS011;68773;40.400;17.260;2023-03-23T03:35:56;13.60;;;7.13;;
52946;SDS011;68773;40.400;17.260;2023-03-23T03:38:22;10.40;;;6.75;;
52946;SDS011;68773;40.400;17.260;2023-03-23T03:40:47;11.93;;;6.55;;
52946;SDS011;68773;40.400;17.260;2023-03-23T03:43:13;13.73;;;6.70;;
52946;SDS011;68773;40.400;17.260;2023-03-23T03:45:38;11.15;;;6.93;;
52946;SDS011;68773;40.400;17.260;2023-03-23T03:48:03;13.85;;;6.78;;
52946;SDS011;68773;40.400;17.260;2023-03-23T03:50:29;12.18;;;6.18;;
52946;SDS011;68773;40.400;17.260;2023-03-23T03:52:54;13.20;;;6.70;;
52946;SDS011;68773;40.400;17.260;2023-03-23T03:55:19;12.02;;;7.07;;
52946;SDS011;68773;40.400;17.260;2023-03-23T03:57:44;10.00;;;5.60;;
52946;SDS011;68773;40.400;17.260;2023-03-23T04:00:10;15.60;;;6.85;;
52946;SDS011;68773;40.400;17.260;2023-03-23T04:02:45;18.83;;;7.95;;
52946;SDS011;68773;40.400;17.260;2023-03-23T04:05:16;16.60;;;7.90;;
52946;SDS011;68773;40.400;17.260;2023-03-23T04:07:42;16.67;;;8.02;;
52946;SDS011;68773;40.400;17.260;2023-03-23T04:10:08;14.70;;;7.32;;
52946;SDS011;68773;40.400;17.260;2023-03-23T04:12:34;14.63;;;7.63;;
52946;SDS011;68773;40.400;17.260;2023-03-23T04:14:59;11.90;;;7.32;;
52946;SDS011;68773;40.400;17.260;2023-03-23T04:17:25;17.35;;;8.80;;
52946;SDS011;68773;40.400;17.260;2023-03-23T04:19:53;14.98;;;8.07;;
52946;SDS011;68773;40.400;17.260;2023-03-23T04:22:22;20.48;;;8.57;;
52946;SDS011;68773;40.400;17.260;2023-03-23T04:24:49;17.10;;;9.38;;
52946;SDS011;68773;40.400;17.260;2023-03-23T04:27:16;17.70;;;8.73;;
52946;SDS011;68773;40.400;17.260;2023-03-23T04:29:42;16.35;;;8.93;;
52946;SDS011;68773;40.400;17.260;2023-03-23T04:32:07;16.80;;;8.73;;
52946;SDS011;68773;40.400;17.260;2023-03-23T04:34:32;11.43;;;8.27;;
52946;SDS011;68773;40.400;17.260;2023-03-23T04:37:00;15.52;;;7.60;;
52946;SDS011;68773;40.400;17.260;2023-03-23T04:39:25;11.98;;;7.78;;
52946;SDS011;68773;40.400;17.260;2023-03-23T04:41:53;14.27;;;8.02;;
52946;SDS011;68773;40.400;17.260;2023-03-23T04:44:19;13.13;;;7.82;;
52946;SDS011;68773;40.400;17.260;2023-03-23T04:46:46;10.07;;;6.00;;
52946;SDS011;68773;40.400;17.260;2023-03-23T04:49:14;9.90;;;6.10;;
52946;SDS011;68773;40.400;17.260;2023-03-23T04:51:40;9.38;;;6.10;;
52946;SDS011;68773;40.400;17.260;2023-03-23T04:54:05;11.15;;;5.65;;
52946;SDS011;68773;40.400;17.260;2023-03-23T04:56:30;11.57;;;6.43;;
52946;SDS011;68773;40.400;17.260;2023-03-23T04:58:56;9.40;;;6.45;;
52946;SDS011;68773;40.400;17.260;2023-03-23T05:01:21;10.52;;;7.15;;
52946;SDS011;68773;40.400;17.260;2023-03-23T05:03:46;10.95;;;6.50;;
52946;SDS011;68773;40.400;17.260;2023-03-23T05:06:12;10.70;;;6.90;;
52946;SDS011;68773;40.400;17.260;2023-03-23T05:08:38;10.40;;;6.82;;
52946;SDS011;68773;40.400;17.260;2023-03-23T05:11:04;10.20;;;6.78;;
52946;SDS011;68773;40.400;17.260;2023-03-23T05:13:30;11.55;;;7.72;;
52946;SDS011;68773;40.400;17.260;2023-03-23T05:15:56;10.85;;;7.88;;
52946;SDS011;68773;40.400;17.260;2023-03-23T05:18:21;12.55;;;7.55;;
52946;SDS011;68773;40.400;17.260;2023-03-23T05:20:47;13.45;;;7.70;;
52946;SDS011;68773;40.400;17.260;2023-03-23T05:23:13;17.33;;;10.48;;
52946;SDS011;68773;40.400;17.260;2023-03-23T05:25:39;13.50;;;8.50;;
52946;SDS011;68773;40.400;17.260;2023-03-23T05:28:08;15.50;;;9.18;;
52946;SDS011;68773;40.400;17.260;2023-03-23T05:30:35;13.70;;;8.93;;
52946;SDS011;68773;40.400;17.260;2023-03-23T05:33:01;18.20;;;10.98;;
52946;SDS011;68773;40.400;17.260;2023-03-23T05:35:26;20.38;;;11.77;;
52946;SDS011;68773;40.400;17.260;2023-03-23T05:37:52;17.40;;;10.50;;
52946;SDS011;68773;40.400;17.260;2023-03-23T05:40:18;15.90;;;9.38;;
52946;SDS011;68773;40.400;17.260;2023-03-23T05:42:45;26.55;;;11.63;;
52946;SDS011;68773;40.400;17.260;2023-03-23T05:45:11;19.83;;;9.98;;
52946;SDS011;68773;40.400;17.260;2023-03-23T05:47:37;16.98;;;10.40;;
52946;SDS011;68773;40.400;17.260;2023-03-23T05:50:03;15.70;;;9.13;;
52946;SDS011;68773;40.400;17.260;2023-03-23T05:52:30;13.30;;;8.57;;
52946;SDS011;68773;40.400;17.260;2023-03-23T05:54:57;15.00;;;7.82;;
52946;SDS011;68773;40.400;17.260;2023-03-23T05:57:23;17.52;;;8.82;;
52946;SDS011;68773;40.400;17.260;2023-03-23T05:59:48;13.02;;;8.98;;
52946;SDS011;68773;40.400;17.260;2023-03-23T06:02:13;16.48;;;8.90;;
52946;SDS011;68773;40.400;17.260;2023-03-23T06:04:39;16.60;;;9.38;;
52946;SDS011;68773;40.400;17.260;2023-03-23T06:07:05;16.45;;;9.18;;
52946;SDS011;68773;40.400;17.260;2023-03-23T06:09:31;15.32;;;10.38;;
52946;SDS011;68773;40.400;17.260;2023-03-23T06:11:56;16.80;;;10.40;;
52946;SDS011;68773;40.400;17.260;2023-03-23T06:14:22;17.25;;;10.30;;
52946;SDS011;68773;40.400;17.260;2023-03-23T06:16:48;17.85;;;11.35;;
52946;SDS011;68773;40.400;17.260;2023-03-23T06:19:13;16.67;;;11.18;;
52946;SDS011;68773;40.400;17.260;2023-03-23T06:21:39;15.80;;;10.75;;
52946;SDS011;68773;40.400;17.260;2023-03-23T06:24:05;14.95;;;10.25;;
52946;SDS011;68773;40.400;17.260;2023-03-23T06:26:32;16.27;;;10.98;;
52946;SDS011;68773;40.400;17.260;2023-03-23T06:28:58;16.85;;;10.27;;
52946;SDS011;68773;40.400;17.260;2023-03-23T06:31:24;17.63;;;10.75;;
52946;SDS011;68773;40.400;17.260;2023-03-23T06:33:51;18.98;;;10.82;;
52946;SDS011;68773;40.400;17.260;2023-03-23T06:36:16;16.90;;;10.55;;
52946;SDS011;68773;40.400;17.260;2023-03-23T06:38:42;18.98;;;10.25;;
52946;SDS011;68773;40.400;17.260;2023-03-23T06:41:07;16.08;;;10.70;;
52946;SDS011;68773;40.400;17.260;2023-03-23T06:43:33;19.58;;;10.10;;
52946;SDS011;68773;40.400;17.260;2023-03-23T06:46:00;19.25;;;11.45;;
52946;SDS011;68773;40.400;17.260;2023-03-23T06:48:26;17.35;;;10.50;;
52946;SDS011;68773;40.400;17.260;2023-03-23T06:50:52;17.55;;;10.00;;
52946;SDS011;68773;40.400;17.260;2023-03-23T06:53:17;17.55;;;10.27;;
52946;SDS011;68773;40.400;17.260;2023-03-23T06:55:43;17.20;;;10.50;;
52946;SDS011;68773;40.400;17.260;2023-03-23T06:58:08;13.85;;;9.52;;
52946;SDS011;68773;40.400;17.260;2023-03-23T07:00:34;15.00;;;9.40;;
52946;SDS011;68773;40.400;17.260;2023-03-23T07:02:59;13.30;;;8.40;;
52946;SDS011;68773;40.400;17.260;2023-03-23T07:05:24;12.98;;;9.02;;
52946;SDS011;68773;40.400;17.260;2023-03-23T07:07:50;12.77;;;8.38;;
52946;SDS011;68773;40.400;17.260;2023-03-23T07:10:15;13.27;;;8.32;;
52946;SDS011;68773;40.400;17.260;2023-03-23T07:12:41;11.45;;;7.80;;
52946;SDS011;68773;40.400;17.260;2023-03-23T07:15:07;10.40;;;6.90;;
52946;SDS011;68773;40.400;17.260;2023-03-23T07:17:35;10.43;;;7.03;;
52946;SDS011;68773;40.400;17.260;2023-03-23T07:20:00;14.30;;;8.07;;
52946;SDS011;68773;40.400;17.260;2023-03-23T07:22:26;14.05;;;8.32;;
52946;SDS011;68773;40.400;17.260;2023-03-23T07:24:51;13.48;;;7.55;;
52946;SDS011;68773;40.400;17.260;2023-03-23T07:27:16;10.82;;;7.47;;
52946;SDS011;68773;40.400;17.260;2023-03-23T07:29:42;15.65;;;8.00;;
52946;SDS011;68773;40.400;17.260;2023-03-23T07:32:10;13.43;;;8.10;;
52946;SDS011;68773;40.400;17.260;2023-03-23T07:34:35;13.13;;;7.97;;
52946;SDS011;68773;40.400;17.260;2023-03-23T07:37:02;13.63;;;7.78;;
52946;SDS011;68773;40.400;17.260;2023-03-23T07:39:27;13.70;;;7.47;;
52946;SDS011;68773;40.400;17.260;2023-03-23T07:41:53;10.38;;;6.40;;
52946;SDS011;68773;40.400;17.260;2023-03-23T07:44:18;15.43;;;8.90;;
52946;SDS011;68773;40.400;17.260;2023-03-23T07:46:43;18.33;;;8.57;;
52946;SDS011;68773;40.400;17.260;2023-03-23T07:49:09;12.30;;;8.02;;
52946;SDS011;68773;40.400;17.260;2023-03-23T07:51:35;12.98;;;7.40;;
52946;SDS011;68773;40.400;17.260;2023-03-23T07:54:03;11.70;;;7.78;;
52946;SDS011;68773;40.400;17.260;2023-03-23T07:56:29;15.63;;;7.57;;
52946;SDS011;68773;40.400;17.260;2023-03-23T07:58:54;11.43;;;7.75;;
52946;SDS011;68773;40.400;17.260;2023-03-23T08:01:19;14.18;;;7.72;;
52946;SDS011;68773;40.400;17.260;2023-03-23T08:03:45;13.23;;;8.20;;
52946;SDS011;68773;40.400;17.260;2023-03-23T08:06:10;12.52;;;8.13;;
52946;SDS011;68773;40.400;17.260;2023-03-23T08:08:35;16.80;;;9.43;;
52946;SDS011;68773;40.400;17.260;2023-03-23T08:11:02;13.48;;;9.02;;
52946;SDS011;68773;40.400;17.260;2023-03-23T08:13:27;13.57;;;8.25;;
52946;SDS011;68773;40.400;17.260;2023-03-23T08:15:53;13.38;;;8.38;;
52946;SDS011;68773;40.400;17.260;2023-03-23T08:18:18;13.30;;;8.85;;
52946;SDS011;68773;40.400;17.260;2023-03-23T08:20:44;14.52;;;7.45;;
52946;SDS011;68773;40.400;17.260;2023-03-23T08:23:13;13.00;;;7.55;;
52946;SDS011;68773;40.400;17.260;2023-03-23T08:25:41;15.10;;;7.47;;
52946;SDS011;68773;40.400;17.260;2023-03-23T08:28:07;10.63;;;7.03;;
52946;SDS011;68773;40.400;17.260;2023-03-23T08:30:34;11.30;;;7.47;;
52946;SDS011;68773;40.400;17.260;2023-03-23T08:33:01;13.63;;;7.90;;
52946;SDS011;68773;40.400;17.260;2023-03-23T08:35:27;10.90;;;7.90;;
52946;SDS011;68773;40.400;17.260;2023-03-23T08:37:53;10.50;;;7.90;;
52946;SDS011;68773;40.400;17.260;2023-03-23T08:40:20;12.45;;;7.18;;
52946;SDS011;68773;40.400;17.260;2023-03-23T08:42:46;12.93;;;6.82;;
52946;SDS011;68773;40.400;17.260;2023-03-23T08:45:13;10.70;;;7.05;;
52946;SDS011;68773;40.400;17.260;2023-03-23T08:47:40;12.02;;;7.18;;
52946;SDS011;68773;40.400;17.260;2023-03-23T08:50:06;9.88;;;6.30;;
52946;SDS011;68773;40.400;17.260;2023-03-23T08:52:31;9.13;;;6.10;;
52946;SDS011;68773;40.400;17.260;2023-03-23T08:54:57;9.30;;;5.45;;
52946;SDS011;68773;40.400;17.260;2023-03-23T08:57:23;8.48;;;5.72;;
52946;SDS011;68773;40.400;17.260;2023-03-23T08:59:49;8.50;;;6.43;;
52946;SDS011;68773;40.400;17.260;2023-03-23T09:02:15;8.57;;;5.97;;
52946;SDS011;68773;40.400;17.260;2023-03-23T09:04:41;10.85;;;7.18;;
52946;SDS011;68773;40.400;17.260;2023-03-23T09:07:10;10.55;;;6.38;;
52946;SDS011;68773;40.400;17.260;2023-03-23T09:09:37;10.30;;;6.47;;
52946;SDS011;68773;40.400;17.260;2023-03-23T09:12:04;9.77;;;6.47;;
52946;SDS011;68773;40.400;17.260;2023-03-23T09:14:29;11.80;;;6.55;;
52946;SDS011;68773;40.400;17.260;2023-03-23T09:16:55;10.25;;;6.35;;
52946;SDS011;68773;40.400;17.260;2023-03-23T09:19:20;10.50;;;6.05;;
52946;SDS011;68773;40.400;17.260;2023-03-23T09:21:45;9.50;;;6.70;;
52946;SDS011;68773;40.400;17.260;2023-03-23T09:24:11;10.10;;;6.50;;
52946;SDS011;68773;40.400;17.260;2023-03-23T09:26:36;10.20;;;7.25;;
52946;SDS011;68773;40.400;17.260;2023-03-23T09:29:02;9.73;;;6.90;;
52946;SDS011;68773;40.400;17.260;2023-03-23T09:31:28;11.25;;;6.47;;
52946;SDS011;68773;40.400;17.260;2023-03-23T09:33:53;12.57;;;6.28;;
52946;SDS011;68773;40.400;17.260;2023-03-23T09:36:22;8.80;;;6.22;;
52946;SDS011;68773;40.400;17.260;2023-03-23T09:38:47;9.88;;;6.20;;
52946;SDS011;68773;40.400;17.260;2023-03-23T09:41:21;10.32;;;6.70;;
52946;SDS011;68773;40.400;17.260;2023-03-23T09:51:24;9.60;;;6.80;;
52946;SDS011;68773;40.400;17.260;2023-03-23T09:53:54;10.50;;;6.75;;
52946;SDS011;68773;40.400;17.260;2023-03-23T09:56:21;11.55;;;6.53;;
52946;SDS011;68773;40.400;17.260;2023-03-23T10:01:17;9.52;;;6.20;;
52946;SDS011;68773;40.400;17.260;2023-03-23T10:03:44;9.82;;;5.97;;
52946;SDS011;68773;40.400;17.260;2023-03-23T10:06:11;8.25;;;6.72;;
52946;SDS011;68773;40.400;17.260;2023-03-23T10:08:39;10.13;;;7.15;;
52946;SDS011;68773;40.400;17.260;2023-03-23T10:16:38;10.05;;;6.43;;
52946;SDS011;68773;40.400;17.260;2023-03-23T10:19:12;9.60;;;6.28;;
52946;SDS011;68773;40.400;17.260;2023-03-23T10:21:42;9.27;;;5.95;;
52946;SDS011;68773;40.400;17.260;2023-03-23T10:24:10;8.35;;;6.13;;
52946;SDS011;68773;40.400;17.260;2023-03-23T10:31:32;9.35;;;5.70;;
52946;SDS011;68773;40.400;17.260;2023-03-23T10:34:01;9.10;;;5.90;;
52946;SDS011;68773;40.400;17.260;2023-03-23T10:36:29;9.27;;;6.05;;
52946;SDS011;68773;40.400;17.260;2023-03-23T10:39:05;10.23;;;5.30;;
52946;SDS011;68773;40.400;17.260;2023-03-23T10:41:32;7.40;;;4.90;;
52946;SDS011;68773;40.400;17.260;2023-03-23T10:43:58;9.20;;;6.15;;
52946;SDS011;68773;40.400;17.260;2023-03-23T10:48:53;8.75;;;5.30;;
52946;SDS011;68773;40.400;17.260;2023-03-23T10:51:21;7.70;;;5.13;;
52946;SDS011;68773;40.400;17.260;2023-03-23T10:53:51;9.98;;;5.53;;
52946;SDS011;68773;40.400;17.260;2023-03-23T10:56:27;9.27;;;5.43;;
52946;SDS011;68773;40.400;17.260;2023-03-23T10:58:55;10.73;;;5.45;;
52946;SDS011;68773;40.400;17.260;2023-03-23T11:01:31;9.45;;;4.97;;
52946;SDS011;68773;40.400;17.260;2023-03-23T11:03:56;7.88;;;4.30;;
52946;SDS011;68773;40.400;17.260;2023-03-23T11:06:23;6.25;;;4.22;;
52946;SDS011;68773;40.400;17.260;2023-03-23T11:11:19;5.30;;;3.97;;
52946;SDS011;68773;40.400;17.260;2023-03-23T11:13:47;5.78;;;3.15;;
52946;SDS011;68773;40.400;17.260;2023-03-23T11:16:25;6.38;;;3.90;;
52946;SDS011;68773;40.400;17.260;2023-03-23T11:18:52;5.88;;;3.42;;
52946;SDS011;68773;40.400;17.260;2023-03-23T11:21:19;4.85;;;3.25;;
52946;SDS011;68773;40.400;17.260;2023-03-23T11:23:52;5.63;;;3.58;;
52946;SDS011;68773;40.400;17.260;2023-03-23T11:26:22;6.40;;;3.80;;
52946;SDS011;68773;40.400;17.260;2023-03-23T11:28:52;6.05;;;3.50;;
52946;SDS011;68773;40.400;17.260;2023-03-23T11:31:21;5.35;;;2.80;;
52946;SDS011;68773;40.400;17.260;2023-03-23T11:36:13;3.00;;;2.50;;
52946;SDS011;68773;40.400;17.260;2023-03-23T11:38:39;3.92;;;2.80;;
52946;SDS011;68773;40.400;17.260;2023-03-23T11:41:08;7.20;;;3.17;;
52946;SDS011;68773;40.400;17.260;2023-03-23T11:43:34;4.13;;;2.70;;
52946;SDS011;68773;40.400;17.260;2023-03-23T11:46:02;3.78;;;2.58;;
52946;SDS011;68773;40.400;17.260;2023-03-23T11:51:05;1.85;;;1.60;;
52946;SDS011;68773;40.400;17.260;2023-03-23T11:56:23;2.95;;;1.98;;
52946;SDS011;68773;40.400;17.260;2023-03-23T11:58:50;4.03;;;1.77;;
52946;SDS011;68773;40.400;17.260;2023-03-23T12:06:35;2.90;;;2.00;;
52946;SDS011;68773;40.400;17.260;2023-03-23T12:09:08;4.05;;;2.20;;
52946;SDS011;68773;40.400;17.260;2023-03-23T12:14:38;3.80;;;2.50;;
52946;SDS011;68773;40.400;17.260;2023-03-23T12:43:24;6.20;;;3.30;;
52946;SDS011;68773;40.400;17.260;2023-03-23T12:51:01;4.17;;;2.83;;
52946;SDS011;68773;40.400;17.260;2023-03-23T12:54:11;3.47;;;2.35;;
52946;SDS011;68773;40.400;17.260;2023-03-23T12:56:17;4.75;;;2.67;;
52946;SDS011;68773;40.400;17.260;2023-03-23T12:58:47;4.50;;;2.35;;
52946;SDS011;68773;40.400;17.260;2023-03-23T13:01:18;3.70;;;2.20;;
52946;SDS011;68773;40.400;17.260;2023-03-23T13:06:18;4.85;;;3.55;;
52946;SDS011;68773;40.400;17.260;2023-03-23T13:08:53;2.72;;;2.20;;
52946;SDS011;68773;40.400;17.260;2023-03-23T13:11:21;3.70;;;2.47;;
52946;SDS011;68773;40.400;17.260;2023-03-23T13:13:51;4.78;;;2.92;;
52946;SDS011;68773;40.400;17.260;2023-03-23T13:21:30;5.32;;;3.53;;
52946;SDS011;68773;40.400;17.260;2023-03-23T13:23:58;4.65;;;3.20;;
52946;SDS011;68773;40.400;17.260;2023-03-23T13:26:24;5.68;;;2.88;;
52946;SDS011;68773;40.400;17.260;2023-03-23T13:31:19;6.25;;;3.85;;
52946;SDS011;68773;40.400;17.260;2023-03-23T13:33:50;5.70;;;4.22;;
52946;SDS011;68773;40.400;17.260;2023-03-23T13:36:17;5.78;;;3.70;;
52946;SDS011;68773;40.400;17.260;2023-03-23T13:38:49;5.03;;;3.20;;
52946;SDS011;68773;40.400;17.260;2023-03-23T13:41:15;4.13;;;2.50;;
52946;SDS011;68773;40.400;17.260;2023-03-23T13:43:42;6.30;;;2.78;;
52946;SDS011;68773;40.400;17.260;2023-03-23T13:48:46;4.25;;;2.90;;
52946;SDS011;68773;40.400;17.260;2023-03-23T13:53:49;6.45;;;2.63;;
52946;SDS011;68773;40.400;17.260;2023-03-23T13:58:52;5.95;;;2.97;;
52946;SDS011;68773;40.400;17.260;2023-03-23T14:01:31;3.97;;;3.28;;
52946;SDS011;68773;40.400;17.260;2023-03-23T14:03:58;5.10;;;3.75;;
52946;SDS011;68773;40.400;17.260;2023-03-23T14:06:26;4.53;;;3.40;;
52946;SDS011;68773;40.400;17.260;2023-03-23T14:08:52;6.90;;;3.42;;
52946;SDS011;68773;40.400;17.260;2023-03-23T14:11:25;7.15;;;3.22;;
52946;SDS011;68773;40.400;17.260;2023-03-23T14:14:01;5.53;;;3.97;;
52946;SDS011;68773;40.400;17.260;2023-03-23T14:16:40;5.78;;;4.07;;
52946;SDS011;68773;40.400;17.260;2023-03-23T14:19:14;5.32;;;4.03;;
52946;SDS011;68773;40.400;17.260;2023-03-23T14:21:41;5.95;;;3.53;;
52946;SDS011;68773;40.400;17.260;2023-03-23T14:24:10;7.07;;;4.00;;
52946;SDS011;68773;40.400;17.260;2023-03-23T14:26:36;5.18;;;3.85;;
52946;SDS011;68773;40.400;17.260;2023-03-23T14:29:01;5.40;;;3.30;;
52946;SDS011;68773;40.400;17.260;2023-03-23T14:31:28;4.30;;;3.42;;
52946;SDS011;68773;40.400;17.260;2023-03-23T14:33:54;5.53;;;4.13;;
52946;SDS011;68773;40.400;17.260;2023-03-23T14:36:23;6.10;;;4.07;;
52946;SDS011;68773;40.400;17.260;2023-03-23T14:38:56;3.63;;;2.60;;
52946;SDS011;68773;40.400;17.260;2023-03-23T14:41:24;4.72;;;2.20;;
52946;SDS011;68773;40.400;17.260;2023-03-23T14:43:52;2.97;;;2.33;;
52946;SDS011;68773;40.400;17.260;2023-03-23T14:46:17;4.53;;;2.78;;
52946;SDS011;68773;40.400;17.260;2023-03-23T14:48:43;4.22;;;3.03;;
52946;SDS011;68773;40.400;17.260;2023-03-23T14:51:14;4.55;;;3.30;;
52946;SDS011;68773;40.400;17.260;2023-03-23T14:53:42;6.78;;;4.00;;
52946;SDS011;68773;40.400;17.260;2023-03-23T14:56:14;6.05;;;3.42;;
52946;SDS011;68773;40.400;17.260;2023-03-23T14:58:47;10.15;;;4.50;;
52946;SDS011;68773;40.400;17.260;2023-03-23T15:01:28;5.57;;;3.53;;
52946;SDS011;68773;40.400;17.260;2023-03-23T15:03:59;4.68;;;3.20;;
52946;SDS011;68773;40.400;17.260;2023-03-23T15:06:26;7.93;;;3.10;;
52946;SDS011;68773;40.400;17.260;2023-03-23T15:08:52;8.40;;;3.33;;
52946;SDS011;68773;40.400;17.260;2023-03-23T15:11:29;4.13;;;2.83;;
52946;SDS011;68773;40.400;17.260;2023-03-23T15:13:55;4.55;;;2.78;;
52946;SDS011;68773;40.400;17.260;2023-03-23T15:18:58;6.60;;;4.30;;
52946;SDS011;68773;40.400;17.260;2023-03-23T15:21:30;7.00;;;4.97;;
52946;SDS011;68773;40.400;17.260;2023-03-23T15:23:56;6.65;;;4.60;;
52946;SDS011;68773;40.400;17.260;2023-03-23T15:28:47;5.50;;;3.90;;
52946;SDS011;68773;40.400;17.260;2023-03-23T15:31:13;5.97;;;4.50;;
52946;SDS011;68773;40.400;17.260;2023-03-23T15:33:39;4.88;;;3.83;;
52946;SDS011;68773;40.400;17.260;2023-03-23T15:36:09;5.05;;;3.80;;
52946;SDS011;68773;40.400;17.260;2023-03-23T15:38:42;6.05;;;4.22;;
52946;SDS011;68773;40.400;17.260;2023-03-23T15:43:49;6.60;;;4.55;;
52946;SDS011;68773;40.400;17.260;2023-03-23T15:48:54;9.68;;;5.13;;
52946;SDS011;68773;40.400;17.260;2023-03-23T15:51:30;7.72;;;5.30;;
52946;SDS011;68773;40.400;17.260;2023-03-23T15:53:57;8.25;;;5.20;;
52946;SDS011;68773;40.400;17.260;2023-03-23T15:56:23;8.70;;;5.70;;
52946;SDS011;68773;40.400;17.260;2023-03-23T15:58:49;6.93;;;5.03;;
52946;SDS011;68773;40.400;17.260;2023-03-23T16:01:21;12.32;;;5.50;;
52946;SDS011;68773;40.400;17.260;2023-03-23T16:03:49;9.25;;;6.03;;
52946;SDS011;68773;40.400;17.260;2023-03-23T16:06:15;8.98;;;5.50;;
52946;SDS011;68773;40.400;17.260;2023-03-23T16:08:41;8.65;;;5.15;;
52946;SDS011;68773;40.400;17.260;2023-03-23T16:11:08;9.95;;;5.20;;
52946;SDS011;68773;40.400;17.260;2023-03-23T16:13:34;6.43;;;4.88;;
52946;SDS011;68773;40.400;17.260;2023-03-23T16:15:59;9.02;;;4.70;;
52946;SDS011;68773;40.400;17.260;2023-03-23T16:18:25;6.20;;;4.80;;
52946;SDS011;68773;40.400;17.260;2023-03-23T16:20:50;7.97;;;5.03;;
52946;SDS011;68773;40.400;17.260;2023-03-23T16:23:16;7.63;;;5.10;;
52946;SDS011;68773;40.400;17.260;2023-03-23T16:25:41;7.68;;;4.90;;
52946;SDS011;68773;40.400;17.260;2023-03-23T16:28:11;6.78;;;4.97;;
52946;SDS011;68773;40.400;17.260;2023-03-23T16:30:36;8.95;;;5.20;;
52946;SDS011;68773;40.400;17.260;2023-03-23T16:33:02;9.43;;;4.45;;